Latest Weather Observations for Latrobe Valley

IDV60801

Issued at 2:42 am EDT Thursday 15 November 2018 (issued every 10 minutes, with the page automatically refreshed every 10 minutes)

About weather observations | Map of weather stations | Latest weather observations for VIC | Other Formats
Station Details ID: 085280 Name: LATROBE VALLEY AIRPORT Lat: -38.21 Lon: 146.47 Height: 55.7 m
Data from the previous 72 hours. | See also: Recent months at Latrobe Valley
Date/Time
EDT
Temp
°C
App
Temp
°C
Dew
Point
°C
Rel
Hum
%
Delta-T
°C
Wind Press
QNH
hPa
Press
MSL
hPa
Rain since
9am
mm
Dir  Spd
km/h
Gust
km/h
Spd
kts
Gust
kts
15/02:30am 12.2 9.8 9.9 86 1.2 W 13 17 7 9 1019.1 1019.0 0.2
15/02:00am 11.9 9.5 10.1 89 0.9 W 13 17 7 9 1019.0 1018.9 0.2
15/01:30am 12.4 10.6 11.0 91 0.7 W 11 17 6 9 1019.0 1018.9 0.2
15/01:00am 12.3 9.8 10.9 91 0.7 W 15 22 8 12 1018.9 1018.8 0.2
15/12:30am 12.2 8.9 10.8 91 0.7 W 19 24 10 13 1018.8 1018.7 0.2
15/12:00am 12.4 9.8 10.8 90 0.8 W 15 17 8 9 1018.7 1018.6 0.2
 
Date/Time
EDT
Temp
°C
App
Temp
°C
Dew
Point
°C
Rel
Hum
%
Delta-T
°C
Wind Press
QNH
hPa
Press
MSL
hPa
Rain since
9am
mm
Dir  Spd
km/h
Gust
km/h
Spd
kts
Gust
kts
14/11:30pm 12.6 10.4 10.8 89 0.9 W 13 17 7 9 1018.6 1018.5 0.2
14/11:00pm 13.7 11.0 11.6 87 1.1 WSW 17 20 9 11 1018.8 1018.7 0.2
14/10:30pm 13.4 10.6 11.5 88 1.0 W 17 20 9 11 1018.7 1018.6 0.2
14/10:00pm 13.7 11.4 11.6 87 1.1 W 15 19 8 10 1018.5 1018.4 0.2
14/09:57pm 13.7 11.7 11.6 87 1.1 W 13 19 7 10 1018.4 1018.3 0.2
14/09:30pm 14.0 11.3 11.7 86 1.2 WSW 17 24 9 13 1018.3 1018.2 0.2
14/09:23pm 14.0 10.9 11.5 85 1.3 WSW 19 24 10 13 1018.2 1018.1 0.2
14/09:00pm 14.0 11.2 11.5 85 1.3 W 17 20 9 11 1017.7 1017.6 0.2
14/08:30pm 14.1 12.0 11.3 83 1.5 W 13 20 7 11 1017.6 1017.5 0.2
14/08:00pm 14.0 11.2 11.5 85 1.3 W 17 22 9 12 1017.3 1017.2 0.2
14/07:30pm 13.7 11.4 11.8 88 1.0 WSW 15 19 8 10 1016.8 1016.7 0.2
14/07:13pm 13.7 11.1 12.1 90 0.9 WSW 17 22 9 12 1016.6 1016.5 0.2
14/07:01pm 13.5 10.9 12.1 91 0.8 WSW 17 28 9 15 1016.4 1016.3 0.2
14/07:00pm 13.4 10.8 12.0 91 0.8 W 17 28 9 15 1016.4 1016.3 0.2
14/06:40pm 13.7 10.8 12.3 91 0.8 WSW 19 22 10 12 1016.0 1015.9 0.2
14/06:30pm 13.9 10.4 12.3 90 0.9 WSW 22 30 12 16 1015.8 1015.7 0.2
14/06:21pm 14.1 10.2 12.0 87 1.1 SW 24 30 13 16 1015.7 1015.6 0.2
14/06:18pm 14.2 10.2 11.9 86 1.2 SW 24 30 13 16 1015.7 1015.6 0.2
14/06:00pm 14.7 9.9 11.7 82 1.6 SW 28 33 15 18 1015.5 1015.4 0.2
14/05:30pm 14.8 10.5 11.9 83 1.6 SW 26 33 14 18 1015.1 1015.0 0.2
14/05:00pm 15.5 11.3 12.3 81 1.8 SW 26 33 14 18 1014.5 1014.4 0.2
14/04:30pm 16.2 12.6 12.9 81 1.8 SW 24 32 13 17 1014.3 1014.2 0.2
14/04:00pm 17.4 15.1 14.1 81 1.9 SW 19 24 10 13 1014.0 1013.9 0.2
14/03:30pm 17.2 14.9 14.1 82 1.8 SW 19 24 10 13 1014.0 1013.9 0.2
14/03:00pm 17.7 15.8 14.2 80 2.0 SW 17 20 9 11 1014.0 1013.9 0.2
14/02:30pm 18.0 16.7 14.7 81 1.9 SW 15 20 8 11 1014.1 1014.0 0.2
14/02:00pm 17.6 16.6 14.7 83 1.7 WSW 13 15 7 8 1014.2 1014.1 0.2
14/01:30pm 17.6 17.5 14.9 84 1.6 SW 9 13 5 7 1014.4 1014.3 0.2
14/01:00pm 17.5 17.1 14.0 80 2.0 WSW 9 17 5 9 1014.4 1014.3 0.2
14/12:30pm 17.2 16.6 14.7 85 1.4 SW 11 15 6 8 1014.4 1014.3 0.2
14/12:00pm 16.5 15.5 14.7 89 1.0 SW 13 19 7 10 1014.7 1014.6 0.2
14/11:30am 16.4 16.2 14.6 89 1.0 WSW 9 11 5 6 1014.7 1014.6 0.2
14/11:00am 16.4 16.1 14.4 88 1.1 SW 9 13 5 7 1014.6 1014.5 0.0
14/10:30am 16.2 15.5 14.4 89 1.0 WSW 11 17 6 9 1014.5 1014.4 0.0
14/10:00am 15.9 15.2 14.3 90 0.9 SW 11 13 6 7 1014.4 1014.3 0.0
14/09:30am 15.7 14.2 14.2 91 0.9 SW 15 17 8 9 1014.5 1014.4 0.0
14/09:00am 15.5 14.0 14.2 92 0.7 SW 15 19 8 10 1014.4 1014.3 0.6
14/08:30am 15.4 13.5 14.1 92 0.7 SW 17 20 9 11 1014.3 1014.2 0.6
14/08:00am 15.4 13.9 14.3 93 0.6 WSW 15 19 8 10 1014.0 1013.9 0.6
14/07:30am 15.4 14.7 14.3 93 0.6 W 11 13 6 7 1013.7 1013.6 0.6
14/07:00am 15.2 15.1 13.9 92 0.7 WNW 7 9 4 5 1013.4 1013.3 0.2
14/06:30am 15.2 15.1 13.9 92 0.7 NW 7 9 4 5 1013.1 1013.1 0.2
14/06:00am 15.2 15.0 13.7 91 0.8 NW 7 9 4 5 1012.7 1012.7 0.0
14/05:42am 15.2 14.6 13.6 90 0.9 W 9 11 5 6 1012.4 1012.4 0.0
14/05:30am 15.2 14.6 13.6 90 0.9 WSW 9 11 5 6 1012.2 1012.2 0.0
14/05:00am 15.3 14.3 13.5 89 1.0 WSW 11 13 6 7 1012.2 1012.2 0.0
14/04:30am 15.4 14.5 13.6 89 1.0 WSW 11 13 6 7 1012.1 1012.1 0.0
14/04:00am 15.8 15.6 13.6 87 1.2 WSW 7 9 4 5 1012.0 1012.0 0.0
14/03:30am 16.4 15.0 13.5 83 1.6 SW 13 19 7 10 1011.6 1011.6 0.0
14/03:00am 16.9 15.8 13.0 78 2.2 WSW 11 15 6 8 1011.4 1011.4 0.0
14/02:30am 17.1 15.8 12.6 75 2.5 WSW 11 17 6 9 1011.3 1011.3 0.0
14/02:00am 17.8 16.6 12.7 72 2.9 W 11 15 6 8 1011.3 1011.3 0.0
14/01:30am 17.8 18.2 12.5 71 3.0 NNW 2 9 1 5 1011.4 1011.4 0.0
14/01:00am 18.2 17.6 12.4 69 3.2 SW 7 11 4 6 1011.4 1011.4 0.0
14/12:30am 18.6 17.3 12.4 67 3.5 SW 11 17 6 9 1011.5 1011.5 0.0
14/12:00am 18.8 16.6 12.1 65 3.7 SW 15 20 8 11 1011.4 1011.4 0.0
 
Date/Time
EDT
Temp
°C
App
Temp
°C
Dew
Point
°C
Rel
Hum
%
Delta-T
°C
Wind Press
QNH
hPa
Press
MSL
hPa
Rain since
9am
mm
Dir  Spd
km/h
Gust
km/h
Spd
kts
Gust
kts
13/11:30pm 19.7 16.4 11.5 59 4.5 WSW 20 30 11 16 1011.3 1011.3 0.0
13/11:00pm 21.1 16.2 11.4 54 5.4 WSW 28 35 15 19 1011.1 1011.1 0.0
13/10:30pm 23.5 20.1 11.2 46 6.9 W 20 32 11 17 1010.7 1010.7 0.0
13/10:00pm 22.4 20.1 11.8 51 6.0 SW 15 22 8 12 1010.8 1010.8 0.0
13/09:30pm 20.3 18.7 12.8 62 4.3 SW 13 20 7 11 1010.6 1010.6 0.0
13/09:00pm 23.3 21.9 11.0 46 6.9 ENE 9 11 5 6 1009.2 1009.2 0.0
13/08:30pm 23.5 22.6 11.2 46 6.9 E 7 9 4 5 1009.1 1009.1 0.0
13/08:00pm 24.2 23.3 11.2 44 7.3 ENE 7 7 4 4 1008.7 1008.6 0.0
13/07:30pm 24.1 22.4 11.1 44 7.3 NE 11 13 6 7 1008.6 1008.5 0.0
13/07:00pm 25.6 23.3 10.6 39 8.4 N 13 17 7 9 1008.3 1008.2 0.0
13/06:30pm 26.0 24.2 11.0 39 8.5 N 11 15 6 8 1008.0 1007.9 0.0
13/06:00pm 26.7 23.9 11.2 38 8.8 N 17 20 9 11 1007.9 1007.8 0.0
13/05:30pm 27.1 24.6 11.2 37 9.1 N 15 20 8 11 1007.9 1007.8 0.0
13/05:00pm 27.4 25.1 11.8 38 9.0 N 15 20 8 11 1007.9 1007.8 0.0
13/04:30pm 28.1 25.3 11.2 35 9.7 NNE 17 22 9 12 1007.9 1007.8 0.0
13/04:00pm 28.9 26.5 11.5 34 10.1 N 15 20 8 11 1008.0 1007.9 0.0
13/03:30pm 29.3 26.9 11.4 33 10.3 NNE 15 20 8 11 1008.6 1008.5 0.0
13/03:00pm 27.4 24.1 11.0 36 9.3 NE 19 24 10 13 1008.8 1008.8 0.0
13/02:30pm 27.8 24.3 10.1 33 9.9 NE 19 24 10 13 1009.7 1009.7 0.0
13/02:00pm 27.6 24.4 9.9 33 9.9 NE 17 30 9 16 1010.0 1010.0 0.0
13/01:30pm 27.3 24.5 10.1 34 9.6 NE 15 20 8 11 1010.2 1010.2 0.0
13/01:00pm 26.5 23.5 9.4 34 9.4 NNE 15 20 8 11 1010.3 1010.3 0.0
13/12:30pm 25.7 24.7 11.1 40 8.3 E 7 13 4 7 1011.1 1011.1 0.0
13/12:00pm 23.2 22.0 11.6 48 6.5 E 9 13 5 7 1011.5 1011.5 0.0
13/11:30am 22.1 21.1 12.4 54 5.5 ENE 9 13 5 7 1011.9 1011.9 0.0
13/11:00am 20.9 20.4 13.8 64 4.1 ESE 9 13 5 7 1011.8 1011.8 0.0
13/10:30am 19.5 18.7 11.8 61 4.3 SW 7 9 4 5 1012.4 1012.4 0.0
13/10:00am 18.9 19.0 11.5 62 4.1 ENE 2 9 1 5 1012.5 1012.5 0.0
13/09:30am 17.9 16.7 11.7 67 3.4 WNW 9 13 5 7 1012.8 1012.8 0.0
13/09:00am 18.7 18.0 11.3 62 4.1 NNE 6 9 3 5 1012.0 1012.0 0.0
13/08:30am 17.8 16.9 11.4 66 3.5 NE 7 13 4 7 1012.0 1012.0 0.0
13/08:00am 16.4 15.4 12.4 77 2.2 S 9 15 5 8 1012.6 1012.6 0.0
13/07:30am 15.5 16.3 12.4 82 1.7 CALM 0 6 0 3 1011.9 1011.9 0.0
13/07:00am 14.3 14.9 11.8 85 1.3 CALM 0 0 0 0 1011.9 1011.9 0.0
13/06:30am 13.9 13.1 11.2 84 1.4 ENE 6 9 3 5 1011.8 1011.8 0.0
13/06:00am 13.4 13.0 11.1 86 1.2 NNE 4 7 2 4 1011.6 1011.6 0.0
13/05:30am 13.0 11.7 11.1 88 1.0 NE 9 13 5 7 1011.7 1011.7 0.0
13/05:00am 12.8 11.4 10.9 88 1.0 NE 9 11 5 6 1011.7 1011.7 0.0
13/04:30am 12.6 11.4 10.3 86 1.2 NNE 7 9 4 5 1011.8 1011.8 0.0
13/04:00am 12.9 11.4 10.6 86 1.2 NNE 9 9 5 5 1011.9 1011.9 0.0
13/03:30am 12.9 11.4 10.6 86 1.2 NE 9 9 5 5 1012.1 1012.1 0.0
13/03:00am 12.9 11.3 10.3 84 1.3 NNE 9 11 5 6 1012.4 1012.4 0.0
13/02:30am 13.3 13.1 10.3 82 1.6 N 2 7 1 4 1012.7 1012.7 0.0
13/02:00am 14.7 14.9 10.5 76 2.2 CALM 0 0 0 0 1013.4 1013.3 0.0
13/01:30am 15.2 14.3 10.8 75 2.3 ENE 6 7 3 4 1013.9 1013.8 0.0
13/01:00am 14.8 13.4 11.0 78 2.0 NE 9 11 5 6 1014.3 1014.2 0.0
13/12:30am 15.3 14.5 11.7 79 1.9 NE 7 9 4 5 1014.7 1014.6 0.0
13/12:00am 15.4 14.5 11.2 76 2.2 NE 7 9 4 5 1015.1 1015.0 0.0
 
Date/Time
EDT
Temp
°C
App
Temp
°C
Dew
Point
°C
Rel
Hum
%
Delta-T
°C
Wind Press
QNH
hPa
Press
MSL
hPa
Rain since
9am
mm
Dir  Spd
km/h
Gust
km/h
Spd
kts
Gust
kts
12/11:30pm 16.1 15.2 11.5 74 2.5 ENE 7 9 4 5 1015.5 1015.4 0.0
12/11:00pm 16.7 15.2 10.5 67 3.3 NE 9 13 5 7 1015.9 1015.8 0.0
12/10:30pm 18.9 17.0 10.5 58 4.5 E 11 15 6 8 1016.2 1016.1 0.0
12/10:00pm 18.7 17.4 11.3 62 4.0 E 9 15 5 8 1016.5 1016.4 0.0
12/09:30pm 18.8 17.3 11.9 64 3.8 ESE 11 17 6 9 1016.5 1016.4 0.0
12/09:00pm 20.4 18.6 10.8 54 5.2 E 11 17 6 9 1016.3 1016.2 0.0
12/08:30pm 20.4 17.0 10.5 53 5.4 NE 19 28 10 15 1016.3 1016.2 0.0
12/08:00pm 21.6 18.6 10.7 50 6.0 NE 17 24 9 13 1016.1 1016.0 0.0
12/07:30pm 23.1 19.5 10.5 45 7.0 NE 20 28 11 15 1015.8 1015.7 0.0
12/07:00pm 23.9 21.0 10.9 44 7.2 NE 17 30 9 16 1015.5 1015.4 0.0
12/06:30pm 26.2 24.3 6.8 29 10.2 S 6 9 3 5 1015.0 1014.9 0.0
12/06:00pm 26.6 24.1 6.6 28 10.5 S 9 13 5 7 1015.1 1015.0 0.0
12/05:30pm 27.3 24.3 6.1 26 11.1 SW 11 17 6 9 1015.3 1015.2 0.0
12/05:00pm 27.8 24.0 6.0 25 11.4 SSW 15 20 8 11 1015.3 1015.2 0.0
12/04:30pm 27.2 23.3 5.5 25 11.2 SSW 15 20 8 11 1015.3 1015.2 0.0
12/04:00pm 27.2 21.9 3.0 21 12.0 SW 20 26 11 14 1015.4 1015.3 0.0
12/03:30pm 28.1 23.7 5.0 23 11.9 SW 17 24 9 13 1015.7 1015.6 0.0
12/03:00pm 28.2 23.8 4.5 22 12.1 WSW 17 24 9 13 1016.1 1016.0 0.0
12/02:30pm 28.1 23.4 5.0 23 11.9 SW 19 26 10 14 1016.4 1016.3 0.0
12/02:00pm 28.8 24.1 5.0 22 12.3 WSW 19 24 10 13 1016.6 1016.5 0.0
12/01:30pm 29.4 26.3 5.5 22 12.5 WSW 11 28 6 15 1016.8 1016.7 0.0
12/01:00pm 27.8 25.4 7.1 27 11.0 SW 9 17 5 9 1017.0 1016.9 0.0
12/12:30pm 26.2 25.0 10.4 37 8.8 SSW 7 9 4 5 1017.5 1017.4 0.0
12/12:00pm 25.0 24.4 11.6 43 7.6 E 6 9 3 5 1018.1 1018.0 0.0
12/11:30am 23.5 23.2 12.8 51 6.2 ENE 6 15 3 8 1018.5 1018.4 0.0
12/11:00am 21.7 21.3 12.5 56 5.2 NE 6 9 3 5 1018.9 1018.8 0.0
12/10:30am 20.3 19.2 12.0 59 4.6 NE 9 15 5 8 1019.1 1019.0 0.0
12/10:00am 19.7 17.9 12.2 62 4.2 NE 13 17 7 9 1019.3 1019.2 0.0
12/09:30am 17.4 15.5 11.9 70 3.0 ENE 13 17 7 9 1019.5 1019.4 0.0
12/09:00am 16.7 14.8 11.8 73 2.7 ENE 13 17 7 9 1019.7 1019.6 0.0
12/08:38am 15.8 13.1 11.8 77 2.2 NE 17 22 9 12 1019.8 1019.7 0.0
12/08:30am 16.0 13.8 12.0 77 2.2 ENE 15 20 8 11 1019.8 1019.7 0.0
12/08:00am 14.4 12.0 11.4 82 1.6 NE 15 19 8 10 1019.9 1019.8 0.0
12/07:30am 13.3 11.5 10.8 85 1.3 NE 11 17 6 9 1020.0 1019.9 0.0
12/07:26am 13.2 11.0 10.7 85 1.3 NE 13 17 7 9 1020.0 1019.9 0.0
12/07:02am 12.7 10.9 10.9 89 0.9 NE 11 15 6 8 1019.9 1019.8 0.0
12/07:00am 12.6 10.8 10.8 89 0.9 ENE 11 15 6 8 1019.9 1019.8 0.0
12/06:47am 12.3 10.9 10.9 91 0.7 NE 9 15 5 8 1019.9 1019.8 0.0
12/06:30am 11.8 9.9 10.5 92 0.7 NE 11 13 6 7 1019.9 1019.8 0.0
12/06:06am 11.5 9.5 10.2 92 0.7 NE 11 15 6 8 1019.8 1019.7 0.0
12/06:00am 11.6 10.0 10.3 92 0.7 NE 9 13 5 7 1019.7 1019.6 0.0
12/05:51am 11.2 9.1 9.8 91 0.7 NE 11 15 6 8 1019.7 1019.6 0.0
12/05:30am 12.1 10.6 10.7 91 0.7 NE 9 11 5 6 1019.8 1019.7 0.0
12/05:00am 12.5 11.2 11.1 91 0.7 ENE 9 13 5 7 1019.9 1019.8 0.0
12/04:30am 12.4 11.0 10.8 90 0.8 ENE 9 13 5 7 1020.0 1019.9 0.0
12/04:00am 12.2 10.3 10.6 90 0.8 ENE 11 15 6 8 1019.9 1019.8 0.0
12/03:30am 11.8 10.2 10.2 90 0.8 ENE 9 13 5 7 1020.3 1020.2 0.0
12/03:00am 11.5 9.9 10.1 91 0.7 ENE 9 13 5 7 1020.4 1020.3 0.0

Other Formats:

Comma delimited format used in spreadsheet applications
http://www.bom.gov.au/fwo/IDV60801/IDV60801.94891.axf

JavaScript Object Notation format (JSON) in row-major order
http://www.bom.gov.au/fwo/IDV60801/IDV60801.94891.json